Main page
METAR-TAF:

METAR-TAF

Airports :

Auckland Airport

Auckland, New Zealand

latitude: 37-01S, longitude: 174-48E, elevation: 7 m

Current weather observation

The report was made 41 minutes ago, at 19:00 UTC
Wind 2 kt from the Southeast
Temperature 6°C
Humidity 93%
Pressure 1021 hPa
Visibility 10 km or more

METAR: NZAA 221900Z AUTO 14002KT 9999 NCD 06/05 Q1021 NOSIG

Time: 07:41 (19:41 UTC)

Forecast

The report was made 2 hours and 23 minutes ago, at 17:18 UTC
Forecast valid from 22 at 18 UTC to 23 at 18 UTC
Wind 8 kt from the South
Visibility 10 km or more
Few clouds at a height of 4000 ft

TAF: NZAA 221718Z 2218/2318 19008KT 9999 FEW040

Weather observations and forecasts of more than 4000 airports (METAR and TAF reports).

The available stations are represented by yellow and red dots on the map.

Hover mouse over dot to see the name of the station.

Then click to see weather observations and forecasts.

To change the map : click on the green buttons with a black cross to zoom in, on the green button with a dash to zoom out, or on the green arrows for adjacent maps.


METAR-TAF: